createdAt,value
2023-02-22T00:03:10.610Z,86.05
2023-02-22T00:13:10.486Z,86.04
2023-02-22T00:23:10.434Z,86.07
2023-02-22T00:33:10.530Z,86.05
2023-02-22T00:43:10.603Z,86.12
2023-02-22T00:53:10.546Z,86.10
2023-02-22T01:03:10.554Z,86.18
2023-02-22T01:13:11.644Z,86.21
2023-02-22T01:23:11.580Z,86.28
2023-02-22T01:33:12.526Z,86.22
2023-02-22T01:43:13.170Z,86.31
2023-02-22T01:53:13.633Z,86.21
2023-02-22T02:03:14.528Z,86.35
2023-02-22T02:13:15.732Z,86.43
2023-02-22T02:23:15.731Z,86.45
2023-02-22T02:33:15.705Z,86.42
2023-02-22T02:43:15.713Z,86.42
2023-02-22T02:53:16.976Z,86.56
2023-02-22T03:03:16.725Z,86.57
2023-02-22T03:13:17.308Z,86.65
2023-02-22T03:23:17.666Z,86.76
2023-02-22T03:33:19.679Z,86.72
2023-02-22T03:43:20.695Z,86.59
2023-02-22T03:53:23.156Z,86.66
2023-02-22T04:03:24.713Z,86.70
2023-02-22T04:13:26.828Z,86.73
2023-02-22T04:23:27.158Z,86.77
2023-02-22T04:33:27.996Z,86.79
2023-02-22T04:43:29.713Z,86.89
2023-02-22T04:53:30.185Z,86.83
2023-02-22T05:03:31.385Z,86.84
2023-02-22T05:13:31.815Z,86.92
2023-02-22T05:23:31.834Z,86.89
2023-02-22T05:33:31.927Z,86.86
2023-02-22T05:43:31.936Z,86.86
2023-02-22T05:53:31.960Z,86.83
2023-02-22T06:03:31.925Z,86.85
2023-02-22T06:13:32.629Z,86.90
2023-02-22T06:23:33.654Z,86.86
2023-02-22T06:33:33.994Z,86.84
2023-02-22T06:43:33.994Z,86.84
2023-02-22T06:53:33.927Z,86.66
2023-02-22T07:03:33.976Z,86.33
2023-02-22T07:13:33.999Z,85.97
2023-02-22T07:23:34.038Z,85.51
2023-02-22T07:33:34.992Z,85.27
2023-02-22T07:43:35.125Z,84.60
2023-02-22T07:53:35.081Z,84.15
2023-02-22T08:03:36.056Z,83.80
2023-02-22T08:13:37.176Z,83.25
2023-02-22T08:23:38.347Z,82.60
2023-02-22T08:33:38.114Z,82.07
2023-02-22T08:43:38.131Z,81.36
2023-02-22T08:53:38.148Z,80.11
2023-02-22T09:03:38.152Z,78.68
2023-02-22T09:13:38.096Z,78.09
2023-02-22T09:23:38.167Z,77.78
2023-02-22T09:33:38.135Z,77.31
2023-02-22T09:43:40.052Z,76.97
2023-02-22T09:53:41.331Z,76.28
2023-02-22T10:03:41.212Z,75.40
2023-02-22T10:13:41.708Z,74.75
2023-02-22T10:23:42.868Z,74.38
2023-02-22T10:33:43.398Z,73.86
2023-02-22T10:43:43.397Z,73.36
2023-02-22T10:53:43.585Z,71.82
2023-02-22T11:03:45.241Z,71.15
2023-02-22T11:13:44.738Z,69.76
2023-02-22T11:23:45.417Z,68.46
2023-02-22T11:33:45.342Z,67.36
2023-02-22T11:43:45.434Z,66.65
2023-02-22T11:53:45.408Z,66.46
2023-02-22T12:03:45.510Z,66.10
2023-02-22T12:13:45.391Z,65.79
2023-02-22T12:23:45.382Z,64.97
2023-02-22T12:33:45.397Z,64.78
2023-02-22T12:43:45.497Z,64.52
2023-02-22T12:53:45.398Z,64.27
2023-02-22T13:03:45.506Z,62.99
2023-02-22T13:13:46.669Z,62.50
2023-02-22T13:23:46.487Z,62.70
2023-02-22T13:33:47.078Z,62.39
2023-02-22T13:43:47.532Z,62.06
2023-02-22T13:53:47.575Z,62.16
2023-02-22T14:03:47.786Z,61.56
2023-02-22T14:13:47.542Z,60.29
2023-02-22T14:23:50.716Z,60.38
2023-02-22T14:33:50.607Z,60.34
2023-02-22T14:43:50.731Z,60.74
2023-02-22T14:53:50.536Z,60.91
2023-02-22T15:04:02.006Z,61.07
2023-02-22T15:13:52.690Z,61.04
2023-02-22T15:23:53.099Z,61.37
2023-02-22T15:33:54.426Z,61.82
2023-02-22T15:43:54.686Z,62.42
2023-02-22T15:53:54.656Z,63.10
2023-02-22T16:03:55.149Z,63.56
2023-02-22T16:13:56.779Z,64.08
2023-02-22T16:24:10.304Z,64.69
2023-02-22T16:33:59.778Z,65.30
2023-02-22T16:43:59.748Z,65.93
2023-02-22T16:53:59.806Z,66.60
2023-02-22T17:04:00.477Z,67.22
2023-02-22T17:14:00.763Z,67.80
2023-02-22T17:24:00.978Z,68.40
2023-02-22T17:34:01.763Z,68.89
2023-02-22T17:44:01.921Z,69.33
2023-02-22T17:54:01.934Z,69.71
2023-02-22T18:04:01.879Z,70.03
2023-02-22T18:14:02.124Z,70.37
2023-02-22T18:24:01.894Z,70.69
2023-02-22T18:34:01.879Z,70.95
2023-02-22T18:44:03.513Z,71.18
2023-02-22T18:54:03.948Z,71.41
2023-02-22T19:04:03.900Z,71.72
2023-02-22T19:14:04.790Z,72.01
2023-02-22T19:24:05.051Z,72.26
2023-02-22T19:34:04.904Z,72.51
2023-02-22T19:44:04.898Z,72.84
2023-02-22T19:54:19.211Z,73.25
2023-02-22T20:04:21.088Z,73.56
2023-02-22T20:14:22.685Z,73.80
2023-02-22T20:24:22.960Z,73.98
2023-02-22T20:34:25.142Z,74.23
2023-02-22T20:44:25.100Z,74.46
2023-02-22T20:54:37.778Z,74.71
2023-02-22T21:04:38.085Z,74.96
2023-02-22T21:14:38.119Z,75.11
2023-02-22T21:24:38.144Z,75.25
2023-02-22T21:34:38.171Z,75.43
2023-02-22T21:44:38.094Z,75.58
2023-02-22T21:54:38.246Z,75.68
2023-02-22T22:04:38.096Z,75.84
2023-02-22T22:14:38.199Z,76.11
2023-02-22T22:24:40.192Z,76.44
2023-02-22T22:34:43.292Z,76.69
2023-02-22T22:44:43.272Z,77.02
2023-02-22T22:54:43.329Z,77.22
2023-02-22T23:04:43.183Z,77.51
2023-02-22T23:14:44.084Z,77.79
2023-02-22T23:24:45.077Z,77.99
2023-02-22T23:34:47.119Z,78.17
2023-02-22T23:44:47.283Z,78.32
2023-02-22T23:54:51.358Z,78.48
